Time;durP1;ratioP1;P1;durP2;ratioP2;P2;SDS_P1;SDS_P2;PMS_P1;PMS_P2;Temp;Humidity;BMP_temperature;BMP_pressure;BME280_temperature;BME280_humidity;BME280_pressure;Samples;Min_cycle;Max_cycle;Signal;HPM_P1;HPM_P2
2022/12/15 00:39:02;;;;;;;20.60;11.65;;;-2.30;99.90;;;;;;5034950;28;20064;-75
2022/12/15 00:41:27;;;;;;;22.13;12.55;;;-2.30;99.90;;;;;;5034297;28;20057;-76
2022/12/15 00:43:53;;;;;;;20.55;13.25;;;-2.30;99.90;;;;;;5023740;28;20359;-76
2022/12/15 00:50:50;;;;;;;21.38;12.75;;;-2.40;99.90;;;;;;5034812;28;20083;-75
2022/12/15 01:22:01;;;;;;;19.45;11.88;;;-2.60;99.90;;;;;;5033909;28;20040;-75
2022/12/15 01:24:26;;;;;;;24.48;13.30;;;-2.50;99.90;;;;;;5034113;28;20041;-76
2022/12/15 01:26:52;;;;;;;24.77;11.95;;;-2.50;99.90;;;;;;5034389;28;20032;-76
2022/12/15 01:29:17;;;;;;;23.08;12.52;;;-2.50;99.90;;;;;;5034762;28;20044;-76
2022/12/15 01:31:43;;;;;;;20.05;12.93;;;-2.50;99.90;;;;;;5033063;28;20091;-76
2022/12/15 01:34:08;;;;;;;20.00;11.70;;;-2.50;99.90;;;;;;5035857;28;20112;-76
2022/12/15 01:36:34;;;;;;;21.30;12.70;;;-2.50;99.90;;;;;;5034038;28;20021;-75
2022/12/15 01:39:00;;;;;;;25.42;13.27;;;-2.40;99.90;;;;;;5036832;28;20059;-75
2022/12/15 01:41:26;;;;;;;20.30;11.98;;;-2.40;99.90;;;;;;5040243;28;20083;-76
2022/12/15 01:43:52;;;;;;;23.52;12.38;;;-2.40;99.90;;;;;;5033258;28;20033;-76
2022/12/15 01:46:22;;;;;;;21.63;11.43;;;-2.30;99.90;;;;;;5033142;28;20079;-76
2022/12/15 01:49:10;;;;;;;21.80;12.18;;;-2.30;99.90;;;;;;5033969;28;20029;-76
2022/12/15 01:51:43;;;;;;;19.50;11.10;;;-2.30;99.90;;;;;;5033213;28;20101;-76
2022/12/15 01:54:14;;;;;;;24.75;11.60;;;-2.20;99.90;;;;;;5033182;28;20025;-75
2022/12/15 01:56:44;;;;;;;22.35;12.68;;;-2.20;99.90;;;;;;5033770;28;20034;-76
2022/12/15 01:59:15;;;;;;;20.60;10.98;;;-2.20;99.90;;;;;;5033561;28;20117;-75
2022/12/15 02:01:41;;;;;;;18.30;10.95;;;-2.20;99.90;;;;;;5033479;28;20108;-76
2022/12/15 02:04:07;;;;;;;21.63;11.75;;;-2.30;99.90;;;;;;5033510;28;20493;-75
2022/12/15 02:06:33;;;;;;;18.33;10.95;;;-2.40;99.90;;;;;;5032855;28;20391;-76
2022/12/15 02:09:00;;;;;;;17.08;10.52;;;-2.40;99.90;;;;;;5034342;28;20049;-76
2022/12/15 02:11:43;;;;;;;16.30;11.15;;;-2.40;99.90;;;;;;5034138;28;20021;-76
2022/12/15 02:14:10;;;;;;;20.60;11.00;;;-2.30;99.90;;;;;;5032794;28;20025;-75
2022/12/15 02:16:55;;;;;;;22.50;11.85;;;-2.40;99.90;;;;;;5034970;28;20105;-75
2022/12/15 02:19:48;;;;;;;18.02;11.05;;;-2.30;99.90;;;;;;5040290;28;20056;-77
2022/12/15 02:23:05;;;;;;;15.85;10.13;;;-2.40;99.90;;;;;;5033554;28;20025;-76
2022/12/15 02:26:08;;;;;;;17.90;10.40;;;-2.40;99.90;;;;;;5004811;28;20081;-76
2022/12/15 02:28:58;;;;;;;15.60;9.77;;;-2.50;99.90;;;;;;5018579;28;20022;-75
2022/12/15 02:31:51;;;;;;;15.27;9.40;;;-2.50;99.90;;;;;;5031869;28;20053;-75
2022/12/15 02:34:35;;;;;;;18.73;10.48;;;-2.50;99.90;;;;;;5031710;28;20128;-76
2022/12/15 02:37:07;;;;;;;20.02;10.63;;;-2.60;99.90;;;;;;5018899;28;20112;-76
2022/12/15 02:39:33;;;;;;;19.42;10.60;;;-2.60;99.90;;;;;;5019023;28;20025;-77
2022/12/15 02:41:58;;;;;;;19.88;11.10;;;-2.70;99.90;;;;;;5032206;28;20113;-75
2022/12/15 02:44:35;;;;;;;17.67;10.57;;;-2.70;99.90;;;;;;5033625;28;20069;-76
2022/12/15 02:47:31;;;;;;;18.98;10.98;;;-2.70;99.90;;;;;;5033240;28;20540;-76
2022/12/15 02:50:06;;;;;;;20.50;11.55;;;-2.70;99.90;;;;;;5021093;28;20140;-75
2022/12/15 02:52:54;;;;;;;18.58;10.55;;;-2.70;99.90;;;;;;5032432;28;20053;-76
2022/12/15 02:55:28;;;;;;;21.30;12.05;;;-2.60;99.90;;;;;;5032013;28;20431;-76
2022/12/15 02:58:33;;;;;;;16.27;10.40;;;-2.70;99.90;;;;;;5031874;28;20390;-75
2022/12/15 03:01:08;;;;;;;17.90;11.15;;;-2.70;99.90;;;;;;5005155;28;20045;-76
2022/12/15 03:03:36;;;;;;;19.13;11.35;;;-2.80;99.90;;;;;;5019638;28;20520;-75
2022/12/15 03:06:04;;;;;;;20.10;11.00;;;-2.80;99.90;;;;;;5032665;28;20049;-75
2022/12/15 03:08:30;;;;;;;20.40;11.32;;;-2.80;99.90;;;;;;5032702;28;20029;-75
2022/12/15 03:10:56;;;;;;;22.90;11.45;;;-2.80;99.90;;;;;;5031696;28;20073;-76
2022/12/15 03:13:23;;;;;;;19.25;12.38;;;-2.80;99.90;;;;;;5032394;28;20492;-77
2022/12/15 03:15:48;;;;;;;19.83;11.23;;;-2.80;99.90;;;;;;5032538;28;20029;-77
2022/12/15 03:18:14;;;;;;;17.23;11.05;;;-2.90;99.90;;;;;;5036221;28;20055;-75
2022/12/15 03:20:40;;;;;;;20.15;11.48;;;-2.90;99.90;;;;;;5038118;28;20029;-76
2022/12/15 03:23:06;;;;;;;21.55;11.38;;;-2.90;99.90;;;;;;5036461;28;20488;-76
2022/12/15 03:25:31;;;;;;;19.67;11.95;;;-2.90;99.90;;;;;;5036813;28;20504;-76
2022/12/15 03:27:57;;;;;;;18.30;11.90;;;-3.00;99.90;;;;;;5036451;28;20021;-77
2022/12/15 03:30:23;;;;;;;18.40;11.43;;;-2.90;99.90;;;;;;5035947;28;20029;-76
2022/12/15 03:32:49;;;;;;;24.15;12.95;;;-3.00;99.90;;;;;;5036117;28;20112;-76
2022/12/15 03:35:14;;;;;;;21.05;12.38;;;-2.80;99.90;;;;;;5035941;28;20460;-77
2022/12/15 03:37:41;;;;;;;19.10;11.95;;;-2.90;99.90;;;;;;5037860;28;20026;-75
2022/12/15 03:40:09;;;;;;;18.25;11.40;;;-2.80;99.90;;;;;;5036398;28;20026;-76
2022/12/15 03:42:47;;;;;;;19.00;11.90;;;-2.90;99.90;;;;;;5036408;28;20028;-76
2022/12/15 03:45:17;;;;;;;14.88;11.00;;;-2.90;99.90;;;;;;5035416;28;20037;-74
2022/12/15 03:47:44;;;;;;;17.88;11.10;;;-2.90;99.90;;;;;;5035405;28;20013;-76
2022/12/15 03:50:11;;;;;;;19.13;12.35;;;-2.90;99.90;;;;;;5035278;28;20033;-76
2022/12/15 03:52:37;;;;;;;18.38;11.90;;;-3.00;99.90;;;;;;5035025;28;20511;-76
2022/12/15 03:55:04;;;;;;;20.27;12.13;;;-3.00;99.90;;;;;;5035470;28;20049;-77
2022/12/15 03:57:30;;;;;;;21.90;11.60;;;-3.00;99.90;;;;;;5039540;28;20029;-76
2022/12/15 03:59:56;;;;;;;20.27;11.15;;;-3.00;99.90;;;;;;5036911;28;20110;-75
2022/12/15 04:02:24;;;;;;;15.52;10.50;;;-3.00;99.90;;;;;;5036252;28;20026;-77
2022/12/15 04:04:49;;;;;;;21.55;11.45;;;-3.00;99.90;;;;;;5028422;28;20029;-76
2022/12/15 04:07:15;;;;;;;16.73;10.85;;;-3.00;99.90;;;;;;5027777;28;20531;-75
2022/12/15 04:09:41;;;;;;;20.60;11.65;;;-3.10;99.90;;;;;;5034928;28;20369;-76
2022/12/15 04:12:09;;;;;;;17.20;12.15;;;-3.10;99.90;;;;;;5035592;28;20104;-76
2022/12/15 04:14:35;;;;;;;19.65;12.02;;;-3.20;99.90;;;;;;5039573;28;20064;-76
2022/12/15 04:17:00;;;;;;;19.95;11.50;;;-3.20;99.90;;;;;;5045837;28;20049;-77
2022/12/15 04:22:10;;;;;;;17.58;11.63;;;-3.20;99.90;;;;;;5035481;28;20040;-76
2022/12/15 05:33:16;;;;;;;16.80;10.90;;;-2.90;99.90;;;;;;5032596;28;20028;-76
2022/12/15 05:35:41;;;;;;;22.63;12.25;;;-2.90;99.90;;;;;;5038187;28;20029;-78
2022/12/15 05:38:07;;;;;;;21.30;12.18;;;-2.90;99.90;;;;;;5035424;28;20045;-78
2022/12/15 05:40:32;;;;;;;17.70;11.63;;;-3.00;99.90;;;;;;5035359;28;20029;-79
2022/12/15 05:42:59;;;;;;;23.58;14.10;;;-3.00;99.90;;;;;;5034642;28;20024;-77
2022/12/15 05:45:25;;;;;;;25.10;12.77;;;-3.00;99.90;;;;;;5033162;28;20500;-78
2022/12/15 05:47:52;;;;;;;24.02;13.57;;;-3.10;99.90;;;;;;5032003;28;20382;-79
2022/12/15 05:50:19;;;;;;;22.02;12.88;;;-3.10;99.90;;;;;;5032792;28;20056;-78
2022/12/15 05:52:45;;;;;;;23.77;14.32;;;-2.20;99.90;;;;;;5032288;28;20032;-79
2022/12/15 05:55:11;;;;;;;29.70;14.80;;;-2.90;99.90;;;;;;5030544;28;20025;-79
2022/12/15 05:57:37;;;;;;;24.02;12.50;;;-2.90;99.90;;;;;;5031100;28;20100;-79
2022/12/15 06:00:04;;;;;;;24.77;12.95;;;-2.90;99.90;;;;;;5032130;28;20026;-78
2022/12/15 06:02:29;;;;;;;24.23;13.20;;;-2.90;99.90;;;;;;5031489;28;20861;-78
2022/12/15 06:04:55;;;;;;;25.20;14.95;;;-2.90;99.90;;;;;;5031554;28;20099;-78
2022/12/15 06:07:21;;;;;;;26.25;15.90;;;-2.90;99.90;;;;;;5032995;28;20028;-78
2022/12/15 06:09:46;;;;;;;30.85;15.70;;;-2.70;99.90;;;;;;5031913;28;20378;-79
2022/12/15 06:12:12;;;;;;;23.80;13.77;;;-2.70;99.90;;;;;;5036974;28;20044;-78
2022/12/15 06:14:37;;;;;;;28.92;14.05;;;-2.70;99.90;;;;;;5040611;28;20053;-79
2022/12/15 06:17:03;;;;;;;25.88;15.15;;;-2.70;99.90;;;;;;5034206;28;20022;-79
2022/12/15 06:19:29;;;;;;;28.13;14.07;;;-2.70;99.90;;;;;;5032294;28;20022;-78
2022/12/15 06:22:00;;;;;;;27.70;15.10;;;-2.70;99.90;;;;;;5033468;28;20052;-79
2022/12/15 06:24:26;;;;;;;26.00;14.90;;;-2.80;99.90;;;;;;5042256;28;20037;-78
2022/12/15 06:26:51;;;;;;;26.73;15.27;;;-2.70;99.90;;;;;;5031130;28;20308;-78
2022/12/15 06:29:17;;;;;;;26.48;14.98;;;-2.80;99.90;;;;;;5031754;28;20513;-78
2022/12/15 06:31:43;;;;;;;24.48;14.52;;;-2.80;99.90;;;;;;5032031;28;20395;-78
2022/12/15 06:34:14;;;;;;;34.15;16.67;;;-2.80;99.90;;;;;;5030502;28;20025;-77
2022/12/15 06:36:40;;;;;;;27.38;14.93;;;-2.80;99.90;;;;;;5029122;28;20092;-78
2022/12/15 06:39:10;;;;;;;33.42;16.98;;;-2.80;99.90;;;;;;5031658;28;20029;-78
2022/12/15 06:41:36;;;;;;;26.15;15.10;;;-2.80;99.90;;;;;;5030052;28;20121;-77
2022/12/15 06:44:04;;;;;;;28.73;14.85;;;-2.80;99.90;;;;;;5030720;28;20125;-77
2022/12/15 06:46:31;;;;;;;29.27;15.85;;;-2.80;99.90;;;;;;5030521;28;20037;-77
2022/12/15 06:48:57;;;;;;;29.45;15.68;;;-2.90;99.90;;;;;;5029451;28;20064;-78
2022/12/15 06:51:24;;;;;;;25.90;14.80;;;-2.90;99.90;;;;;;5031631;28;20083;-77
2022/12/15 06:53:52;;;;;;;30.60;15.68;;;-2.90;99.90;;;;;;5034315;28;20026;-79
2022/12/15 06:56:30;;;;;;;31.65;16.42;;;-2.80;99.90;;;;;;5031710;28;20029;-77
2022/12/15 06:58:57;;;;;;;28.35;16.63;;;-2.90;99.90;;;;;;5037093;28;20031;-78
2022/12/15 07:01:24;;;;;;;28.67;15.52;;;-2.90;99.90;;;;;;5034354;28;20026;-77
2022/12/15 07:03:51;;;;;;;29.13;15.10;;;-2.90;99.90;;;;;;5036367;28;20061;-78
2022/12/15 07:06:20;;;;;;;31.10;15.68;;;-2.90;99.90;;;;;;5035734;28;20566;-78
2022/12/15 07:08:51;;;;;;;27.90;16.35;;;-2.80;99.90;;;;;;5036078;28;20025;-79
2022/12/15 07:11:18;;;;;;;30.35;15.52;;;-2.90;99.90;;;;;;5037242;28;20093;-77
2022/12/15 07:13:47;;;;;;;26.55;15.70;;;-2.90;99.90;;;;;;5037316;28;20422;-78
2022/12/15 07:16:12;;;;;;;25.27;15.88;;;-3.00;99.90;;;;;;5035509;28;20382;-78
2022/12/15 07:18:39;;;;;;;26.63;15.50;;;-2.90;99.90;;;;;;5036519;28;20018;-78
2022/12/15 07:21:07;;;;;;;29.52;14.18;;;-2.90;99.90;;;;;;5037501;28;20029;-74
2022/12/15 07:23:33;;;;;;;34.33;17.40;;;-3.00;99.90;;;;;;5035719;28;20026;-78
2022/12/15 07:26:06;;;;;;;31.10;15.82;;;-2.90;99.90;;;;;;5036134;28;20034;-77
2022/12/15 07:28:32;;;;;;;25.92;15.95;;;-3.00;99.90;;;;;;5032625;28;20022;-77
2022/12/15 07:31:05;;;;;;;25.20;15.35;;;-3.00;99.90;;;;;;5033999;28;20073;-76
2022/12/15 07:33:32;;;;;;;27.52;15.82;;;-3.10;99.90;;;;;;5035244;28;20025;-77
2022/12/15 07:35:59;;;;;;;24.38;14.10;;;-3.10;99.90;;;;;;5034995;28;20018;-76
2022/12/15 07:38:25;;;;;;;30.70;15.82;;;-3.10;99.90;;;;;;5022406;28;20429;-79
2022/12/15 07:40:51;;;;;;;29.33;16.08;;;-3.20;99.90;;;;;;5017151;28;20030;-77
2022/12/15 07:43:16;;;;;;;33.28;15.93;;;-3.20;99.90;;;;;;5017380;28;20485;-80
2022/12/15 07:45:42;;;;;;;32.28;16.83;;;-3.20;99.90;;;;;;5031673;28;20147;-79
2022/12/15 07:48:08;;;;;;;29.92;16.38;;;-3.10;99.90;;;;;;5034743;28;20021;-79
2022/12/15 07:50:36;;;;;;;27.65;15.95;;;-3.10;99.90;;;;;;5034059;28;20025;-80
2022/12/15 07:53:02;;;;;;;29.33;15.20;;;-3.10;99.90;;;;;;5034884;28;20064;-81
2022/12/15 07:55:27;;;;;;;31.42;17.70;;;-3.10;99.90;;;;;;5037213;28;20026;-80
2022/12/15 07:57:53;;;;;;;34.97;17.15;;;-3.10;99.90;;;;;;5028005;28;20029;-79
2022/12/15 08:00:19;;;;;;;29.17;16.08;;;-3.10;99.90;;;;;;5037224;28;20397;-80
2022/12/15 08:02:44;;;;;;;27.38;17.65;;;-3.10;99.90;;;;;;5034866;28;20021;-82
2022/12/15 08:05:10;;;;;;;31.90;18.35;;;-3.00;99.90;;;;;;5035293;28;20029;-81
2022/12/15 08:07:38;;;;;;;34.15;18.00;;;-3.00;99.90;;;;;;5037515;28;20032;-80
2022/12/15 08:10:04;;;;;;;37.63;17.88;;;-2.90;99.90;;;;;;5048702;28;20022;-80
2022/12/15 08:12:30;;;;;;;32.75;18.00;;;-2.80;99.90;;;;;;5041576;28;20021;-80
2022/12/15 08:14:56;;;;;;;36.35;17.70;;;-2.80;99.90;;;;;;5038359;28;20057;-80
2022/12/15 08:17:21;;;;;;;34.70;18.75;;;-2.80;99.90;;;;;;5038279;28;20026;-83
2022/12/15 08:19:47;;;;;;;31.65;17.88;;;-2.70;99.90;;;;;;5037149;28;20083;-80
2022/12/15 08:22:14;;;;;;;39.13;20.15;;;-2.70;99.90;;;;;;5037563;28;20033;-82
2022/12/15 08:24:40;;;;;;;33.35;18.52;;;-2.60;99.90;;;;;;5038734;28;20084;-77
2022/12/15 08:27:05;;;;;;;35.13;18.58;;;-2.60;99.90;;;;;;5040125;28;20021;-83
2022/12/15 08:29:31;;;;;;;41.10;18.23;;;-2.60;99.90;;;;;;5036018;28;20033;-81
2022/12/15 08:31:57;;;;;;;29.48;17.92;;;-2.50;99.90;;;;;;5037836;28;20072;-77
2022/12/15 08:34:22;;;;;;;33.55;19.25;;;-2.50;99.90;;;;;;5036217;28;20021;-84
2022/12/15 08:36:48;;;;;;;30.90;18.60;;;-2.50;99.90;;;;;;5034692;28;20104;-79
2022/12/15 08:39:13;;;;;;;39.53;18.95;;;-2.40;99.90;;;;;;5036332;28;20013;-78
2022/12/15 08:41:40;;;;;;;34.67;20.05;;;-2.40;99.90;;;;;;5020246;28;20109;-79
2022/12/15 08:44:05;;;;;;;36.63;19.40;;;-2.40;99.90;;;;;;5031369;28;20022;-78
2022/12/15 08:46:33;;;;;;;36.50;21.08;;;-2.40;99.90;;;;;;5031103;28;20048;-77
2022/12/15 08:49:00;;;;;;;45.70;22.90;;;-2.30;99.90;;;;;;5031547;28;20026;-79
2022/12/15 08:51:28;;;;;;;51.20;21.92;;;-2.20;99.90;;;;;;5031744;28;20037;-80
2022/12/15 08:53:55;;;;;;;40.03;19.60;;;-2.20;99.90;;;;;;5035164;28;20477;-80
2022/12/15 08:56:22;;;;;;;44.05;22.38;;;-2.10;99.90;;;;;;5035890;28;20013;-79
2022/12/15 08:58:49;;;;;;;38.75;19.50;;;-2.00;99.90;;;;;;5036810;28;20032;-82
2022/12/15 09:01:19;;;;;;;40.85;20.13;;;-2.00;99.90;;;;;;5035609;28;20061;-79
2022/12/15 09:03:45;;;;;;;45.40;21.20;;;-1.90;99.90;;;;;;5036746;28;20029;-80
2022/12/15 09:06:14;;;;;;;39.15;20.70;;;-1.90;99.90;;;;;;5035463;28;20152;-79
2022/12/15 09:08:40;;;;;;;39.90;20.45;;;-1.70;99.90;;;;;;5034978;28;20025;-77
2022/12/15 09:11:05;;;;;;;36.58;20.13;;;-1.70;99.90;;;;;;5029868;28;20022;-79
2022/12/15 09:13:31;;;;;;;44.47;21.90;;;-1.60;99.90;;;;;;5034281;28;20482;-81
2022/12/15 09:15:58;;;;;;;36.05;20.90;;;-1.50;99.90;;;;;;5032198;28;20064;-81
2022/12/15 09:18:25;;;;;;;42.75;21.20;;;-1.50;99.90;;;;;;5034172;28;20428;-80
2022/12/15 09:21:04;;;;;;;44.63;22.17;;;-1.50;99.90;;;;;;5035285;28;20476;-80
2022/12/15 09:23:29;;;;;;;43.40;21.92;;;-1.40;99.90;;;;;;5035638;28;20021;-82
2022/12/15 09:26:03;;;;;;;44.63;21.38;;;-1.30;99.90;;;;;;5034484;28;20029;-82
2022/12/15 09:28:30;;;;;;;43.42;21.27;;;-1.40;99.90;;;;;;5034752;28;20025;-83
2022/12/15 09:31:32;;;;;;;45.35;20.63;;;-1.30;99.90;;;;;;5030731;28;20398;-82
2022/12/15 09:33:59;;;;;;;41.30;21.42;;;-1.30;99.90;;;;;;5034371;28;20405;-82
2022/12/15 09:36:25;;;;;;;39.97;20.77;;;-1.20;99.90;;;;;;5045699;28;20543;-82
2022/12/15 09:38:51;;;;;;;38.63;21.23;;;-1.30;99.90;;;;;;5049897;28;20032;-82
2022/12/15 09:41:23;;;;;;;40.55;24.05;;;-1.20;99.90;;;;;;5036895;28;20033;-84
2022/12/15 09:43:59;;;;;;;42.25;22.70;;;-1.10;99.90;;;;;;5036878;28;20182;-82
2022/12/15 09:47:06;;;;;;;48.97;22.55;;;-1.00;99.90;;;;;;5037289;28;20041;-83
2022/12/15 09:49:54;;;;;;;38.08;21.33;;;-1.00;99.90;;;;;;5029269;28;20026;-84
2022/12/15 09:52:27;;;;;;;42.45;22.45;;;-0.90;99.90;;;;;;5032328;28;20010;-84
2022/12/15 09:54:54;;;;;;;41.75;22.67;;;-0.90;99.90;;;;;;5034855;28;20560;-85
2022/12/15 09:58:02;;;;;;;42.20;23.23;;;-0.80;99.90;;;;;;5035103;28;20037;-84
2022/12/15 10:00:37;;;;;;;43.22;22.35;;;-0.80;99.90;;;;;;4995177;28;20109;-84
2022/12/15 10:03:17;;;;;;;41.10;22.83;;;-0.70;99.90;;;;;;5031713;28;20056;-83
2022/12/15 10:06:09;;;;;;;29.17;16.63;;;-0.60;99.90;;;;;;5036103;28;20036;-83
2022/12/15 10:08:39;;;;;;;38.97;20.85;;;-0.60;99.90;;;;;;5039641;28;20083;-85
2022/12/15 10:11:14;;;;;;;42.88;22.92;;;-0.50;99.90;;;;;;5039803;28;20041;-82
2022/12/15 10:13:49;;;;;;;38.97;23.10;;;-0.40;99.90;;;;;;5040758;28;20445;-83
2022/12/15 10:16:39;;;;;;;42.92;22.33;;;-0.40;99.90;;;;;;5033569;28;20119;-83
2022/12/15 10:19:18;;;;;;;44.80;22.30;;;-0.30;99.90;;;;;;5036158;28;20033;-82
2022/12/15 10:21:44;;;;;;;35.67;22.33;;;-0.20;99.90;;;;;;5039196;28;20021;-83
2022/12/15 10:24:19;;;;;;;40.15;22.67;;;-0.10;99.90;;;;;;5043899;28;20117;-84
2022/12/15 10:27:20;;;;;;;40.75;22.25;;;-0.10;99.90;;;;;;5043652;28;20036;-84
2022/12/15 10:30:01;;;;;;;41.08;22.95;;;0.00;99.90;;;;;;5043319;28;20025;-82
2022/12/15 10:32:50;;;;;;;46.85;23.27;;;0.10;99.90;;;;;;5036013;28;20049;-82
2022/12/15 10:35:20;;;;;;;44.33;22.92;;;0.20;99.90;;;;;;5036794;28;20021;-81
2022/12/15 10:37:45;;;;;;;41.33;22.67;;;0.20;99.90;;;;;;5032890;28;20053;-82
2022/12/15 10:40:17;;;;;;;40.25;23.10;;;0.30;99.90;;;;;;5033374;28;20268;-81
2022/12/15 10:42:48;;;;;;;39.55;22.80;;;0.40;99.90;;;;;;5029429;28;20057;-79
2022/12/15 10:45:31;;;;;;;42.65;23.17;;;0.50;99.90;;;;;;5033720;28;20124;-81
2022/12/15 10:48:01;;;;;;;37.35;22.02;;;0.60;99.90;;;;;;5029375;28;20045;-82
2022/12/15 10:50:27;;;;;;;47.88;23.80;;;0.60;99.90;;;;;;5033692;28;20075;-81
2022/12/15 10:52:52;;;;;;;39.60;23.00;;;0.70;99.90;;;;;;5035025;28;20013;-82
2022/12/15 10:55:45;;;;;;;48.45;23.30;;;0.80;99.90;;;;;;5034557;28;20034;-80
2022/12/15 10:58:22;;;;;;;41.35;23.15;;;0.90;99.90;;;;;;5033027;28;20013;-79
2022/12/15 11:01:03;;;;;;;38.15;23.33;;;1.00;99.90;;;;;;5036737;28;20029;-80
2022/12/15 11:03:30;;;;;;;39.45;22.20;;;1.10;99.90;;;;;;5026046;28;20379;-79
2022/12/15 11:05:56;;;;;;;39.60;22.20;;;1.20;99.90;;;;;;5033735;28;20072;-79
2022/12/15 11:08:23;;;;;;;37.85;23.45;;;1.30;99.90;;;;;;5033163;28;20018;-79
2022/12/15 11:13:39;;;;;;;26.73;15.57;;;1.40;99.90;;;;;;5023096;28;20480;-79
2022/12/15 11:16:16;;;;;;;38.20;22.67;;;1.40;99.90;;;;;;5032376;28;20041;-80
2022/12/15 11:19:03;;;;;;;41.33;24.77;;;1.30;99.90;;;;;;5033180;28;20033;-78
2022/12/15 11:21:35;;;;;;;46.47;24.33;;;1.20;99.90;;;;;;5032147;28;20105;-77
2022/12/15 11:24:15;;;;;;;38.53;23.30;;;1.30;99.90;;;;;;5033285;28;20028;-77
2022/12/15 11:26:54;;;;;;;39.03;23.38;;;1.40;99.90;;;;;;5033621;28;20037;-79
2022/12/15 11:29:45;;;;;;;41.57;25.90;;;1.40;99.90;;;;;;5033117;28;20040;-78
2022/12/15 11:32:12;;;;;;;38.95;23.38;;;1.50;99.90;;;;;;5032883;28;20045;-78
2022/12/15 11:34:43;;;;;;;41.22;22.95;;;1.60;99.90;;;;;;5034826;28;20030;-78
2022/12/15 11:37:38;;;;;;;45.53;24.23;;;1.60;99.90;;;;;;5033992;28;20032;-79
2022/12/15 11:40:14;;;;;;;41.63;23.67;;;1.80;99.90;;;;;;5037013;28;20034;-77
2022/12/15 11:42:56;;;;;;;40.00;23.20;;;2.00;99.90;;;;;;5036973;28;20029;-76
2022/12/15 11:46:07;;;;;;;47.92;24.75;;;2.10;99.90;;;;;;5037736;28;20029;-78
2022/12/15 11:48:45;;;;;;;37.42;22.67;;;2.20;99.90;;;;;;4997237;28;20081;-78
2022/12/15 11:51:23;;;;;;;42.28;23.95;;;2.20;99.90;;;;;;5022641;28;20385;-77
2022/12/15 11:54:18;;;;;;;42.58;23.33;;;2.30;99.90;;;;;;5038204;28;20030;-78
2022/12/15 11:56:54;;;;;;;38.58;22.95;;;2.40;99.90;;;;;;5026400;28;20055;-78
2022/12/15 11:59:37;;;;;;;41.42;24.77;;;2.50;99.90;;;;;;5036624;28;20017;-77
2022/12/15 12:02:15;;;;;;;39.58;22.70;;;2.60;99.90;;;;;;5036117;28;20021;-77
2022/12/15 12:05:08;;;;;;;37.28;20.85;;;2.60;99.90;;;;;;5036021;28;20029;-77
2022/12/15 12:07:48;;;;;;;38.55;22.15;;;2.70;99.90;;;;;;5036450;28;20097;-77
2022/12/15 12:10:34;;;;;;;36.80;21.17;;;2.60;99.90;;;;;;5035714;28;20106;-78
2022/12/15 12:13:29;;;;;;;35.45;20.75;;;2.70;99.90;;;;;;5036591;28;20048;-77
2022/12/15 12:16:13;;;;;;;38.03;20.30;;;2.80;99.90;;;;;;5038212;28;20021;-77
2022/12/15 12:19:04;;;;;;;39.97;19.90;;;2.90;99.90;;;;;;5036094;28;20080;-78
2022/12/15 12:21:39;;;;;;;42.28;21.00;;;3.00;99.90;;;;;;5017405;28;20026;-77
2022/12/15 12:24:12;;;;;;;25.55;17.40;;;3.10;99.90;;;;;;5037518;28;20030;-76
2022/12/15 12:26:44;;;;;;;24.38;15.32;;;3.20;99.90;;;;;;5037126;28;20127;-76
2022/12/15 12:29:33;;;;;;;31.77;15.40;;;3.30;99.90;;;;;;5036953;28;20034;-78
2022/12/15 12:32:04;;;;;;;22.95;15.75;;;3.60;99.90;;;;;;5021894;28;20098;-77
2022/12/15 12:34:49;;;;;;;27.15;14.32;;;3.80;99.90;;;;;;5036888;28;20091;-76
2022/12/15 12:37:24;;;;;;;24.38;15.77;;;3.80;99.90;;;;;;5024171;28;20022;-77
2022/12/15 12:39:52;;;;;;;24.75;13.88;;;3.80;99.90;;;;;;5036767;28;20083;-79
2022/12/15 12:42:31;;;;;;;24.67;14.50;;;3.70;99.90;;;;;;5039761;28;20021;-77
2022/12/15 12:44:59;;;;;;;25.73;14.48;;;3.60;99.90;;;;;;5037044;28;20025;-78
2022/12/15 12:47:29;;;;;;;24.50;14.23;;;3.70;99.90;;;;;;5037616;28;20049;-78
2022/12/15 12:50:31;;;;;;;19.93;13.57;;;3.70;99.90;;;;;;5039206;28;20022;-79
2022/12/15 12:52:59;;;;;;;19.52;13.43;;;3.60;99.90;;;;;;5034930;28;20033;-79
2022/12/15 12:55:41;;;;;;;26.45;15.38;;;3.50;99.90;;;;;;5026393;28;20033;-77
2022/12/15 12:58:35;;;;;;;24.65;15.50;;;3.50;99.90;;;;;;5024243;28;20029;-78
2022/12/15 13:01:09;;;;;;;30.00;16.80;;;3.50;99.90;;;;;;5035850;28;20176;-77
2022/12/15 13:03:38;;;;;;;24.17;15.93;;;3.50;99.90;;;;;;5035806;28;20018;-77
2022/12/15 13:06:40;;;;;;;27.00;15.80;;;3.50;99.90;;;;;;5035624;28;20119;-77
2022/12/15 13:09:20;;;;;;;20.83;15.35;;;3.40;99.90;;;;;;5036046;28;20030;-76
2022/12/15 13:11:52;;;;;;;25.20;15.77;;;3.40;99.90;;;;;;5023270;28;20478;-79
2022/12/15 13:14:48;;;;;;;21.60;15.48;;;3.30;99.90;;;;;;5035579;28;20116;-78
2022/12/15 13:17:22;;;;;;;23.27;15.75;;;3.20;99.90;;;;;;5025866;28;20025;-77
2022/12/15 13:20:00;;;;;;;23.27;15.10;;;3.10;99.90;;;;;;5027202;28;20155;-77
2022/12/15 13:22:36;;;;;;;24.40;15.80;;;3.10;99.90;;;;;;5035029;28;20060;-77
2022/12/15 13:25:31;;;;;;;27.80;16.52;;;3.10;99.90;;;;;;5020445;28;20033;-79
2022/12/15 13:27:59;;;;;;;26.65;16.25;;;3.10;99.90;;;;;;5034803;28;20920;-81
2022/12/15 13:30:25;;;;;;;26.75;17.48;;;3.20;99.90;;;;;;5029985;28;20057;-81
2022/12/15 13:33:17;;;;;;;25.20;16.05;;;3.30;99.90;;;;;;5018257;28;20486;-81
2022/12/15 13:35:43;;;;;;;25.85;16.25;;;3.30;99.90;;;;;;5026620;28;20025;-82
2022/12/15 13:38:20;;;;;;;28.75;16.55;;;3.30;99.90;;;;;;5046807;28;20974;-81
2022/12/15 13:40:52;;;;;;;27.92;18.02;;;3.40;99.90;;;;;;5038196;28;20474;-80
2022/12/15 13:43:44;;;;;;;27.13;16.52;;;3.50;99.90;;;;;;5037321;28;20042;-84
2022/12/15 13:46:23;;;;;;;26.73;15.32;;;3.50;99.90;;;;;;5037956;28;20489;-83
2022/12/15 13:49:12;;;;;;;27.65;15.45;;;3.60;99.90;;;;;;5039179;28;20029;-86
2022/12/15 13:51:45;;;;;;;24.85;15.32;;;3.60;99.90;;;;;;5035565;28;20060;-83
2022/12/15 13:54:10;;;;;;;22.17;13.65;;;3.70;99.90;;;;;;5036466;28;20022;-82
2022/12/15 13:56:39;;;;;;;19.98;13.63;;;3.60;99.90;;;;;;5036385;28;20384;-82
2022/12/15 13:59:47;;;;;;;20.95;14.23;;;3.60;99.90;;;;;;5036440;28;20025;-82
2022/12/15 14:02:41;;;;;;;22.73;14.43;;;3.60;99.90;;;;;;5040863;28;20449;-82
2022/12/15 14:05:16;;;;;;;18.42;13.10;;;3.70;99.90;;;;;;5036204;28;20037;-82
2022/12/15 14:07:46;;;;;;;24.25;13.55;;;3.50;99.90;;;;;;5023338;28;20030;-81
2022/12/15 14:10:40;;;;;;;21.58;13.73;;;3.50;99.90;;;;;;5037354;28;20021;-83
2022/12/15 14:13:12;;;;;;;19.35;13.50;;;3.50;99.90;;;;;;5026564;28;20025;-85
2022/12/15 14:15:42;;;;;;;22.27;15.52;;;3.40;99.90;;;;;;5036741;28;20025;-84
2022/12/15 14:18:37;;;;;;;21.45;13.68;;;3.40;99.90;;;;;;5036851;28;20021;-84
2022/12/15 14:21:26;;;;;;;26.10;14.63;;;3.40;99.90;;;;;;5037059;28;20075;-85
2022/12/15 14:23:51;;;;;;;59.17;23.83;;;3.40;99.90;;;;;;5039160;28;20103;-85
2022/12/15 14:26:26;;;;;;;27.60;17.20;;;3.30;99.90;;;;;;5040355;28;20037;-85
2022/12/15 14:29:03;;;;;;;27.23;15.35;;;3.30;99.90;;;;;;5039758;28;20031;-84
2022/12/15 14:31:29;;;;;;;28.08;15.57;;;3.20;99.90;;;;;;5026843;28;20053;-85
2022/12/15 14:34:06;;;;;;;28.05;16.88;;;3.20;99.90;;;;;;5034638;28;20048;-84
2022/12/15 14:36:33;;;;;;;31.08;16.15;;;3.20;99.90;;;;;;5046350;28;20075;-83
2022/12/15 14:39:00;;;;;;;25.20;15.73;;;3.10;99.90;;;;;;5043737;28;20025;-83
2022/12/15 14:41:34;;;;;;;24.52;15.80;;;3.00;99.90;;;;;;5039827;28;20033;-84
2022/12/15 14:44:07;;;;;;;22.80;15.02;;;3.00;99.90;;;;;;5033136;28;20029;-83
2022/12/15 14:46:33;;;;;;;23.58;15.70;;;3.00;99.90;;;;;;5025491;28;20045;-82
2022/12/15 14:49:04;;;;;;;25.80;16.83;;;2.80;99.90;;;;;;5039701;28;20104;-82
2022/12/15 14:51:39;;;;;;;26.38;17.00;;;2.80;99.90;;;;;;5040853;28;20040;-82
2022/12/15 14:54:05;;;;;;;26.42;15.95;;;2.70;99.90;;;;;;5033871;28;20029;-83
2022/12/15 14:56:30;;;;;;;24.77;16.15;;;2.70;99.90;;;;;;5034916;28;20079;-84
2022/12/15 14:59:15;;;;;;;27.60;16.05;;;2.60;99.90;;;;;;5032242;28;20029;-82
2022/12/15 15:02:01;;;;;;;23.58;15.65;;;2.50;99.90;;;;;;5022696;28;20022;-79
2022/12/15 15:04:31;;;;;;;27.63;17.58;;;2.50;99.90;;;;;;5025804;28;20033;-79
2022/12/15 15:07:04;;;;;;;25.10;15.90;;;2.50;99.90;;;;;;5040378;28;20508;-80
2022/12/15 15:09:36;;;;;;;27.02;17.27;;;2.40;99.90;;;;;;5034454;28;20168;-80
2022/12/15 15:12:12;;;;;;;26.75;16.83;;;2.30;99.90;;;;;;5034216;28;20037;-80
2022/12/15 15:14:43;;;;;;;28.77;16.58;;;2.20;99.90;;;;;;5039306;28;20048;-80
2022/12/15 15:17:12;;;;;;;31.10;17.08;;;2.10;99.90;;;;;;5038979;28;20822;-79
2022/12/15 15:19:48;;;;;;;26.73;16.60;;;2.00;99.90;;;;;;5037980;28;20025;-81
2022/12/15 15:22:25;;;;;;;26.67;16.90;;;1.90;99.90;;;;;;5037934;28;20026;-80
2022/12/15 15:24:51;;;;;;;30.50;17.25;;;1.80;99.90;;;;;;5037679;28;20688;-80